createdAt,value
2023-03-03T00:01:21.177Z,6.13
2023-03-03T00:03:47.793Z,6.01
2023-03-03T00:06:14.928Z,6.04
2023-03-03T00:08:41.705Z,6.11
2023-03-03T00:11:09.141Z,6.17
2023-03-03T00:13:52.061Z,6.16
2023-03-03T00:16:40.706Z,6.12
2023-03-03T00:19:17.301Z,6.12
2023-03-03T00:21:47.146Z,6.10
2023-03-03T00:27:36.180Z,5.94
2023-03-03T00:30:38.486Z,5.86
2023-03-03T00:33:19.722Z,5.87
2023-03-03T00:35:46.324Z,5.87
2023-03-03T00:38:18.329Z,5.87
2023-03-03T00:40:46.325Z,5.71
2023-03-03T00:46:19.537Z,5.56
2023-03-03T00:48:51.063Z,5.63
2023-03-03T00:51:23.510Z,5.59
2023-03-03T00:54:05.420Z,5.57
2023-03-03T00:56:50.018Z,5.59
2023-03-03T00:59:34.829Z,5.60
2023-03-03T01:02:01.429Z,5.61
2023-03-03T01:04:27.976Z,5.64
2023-03-03T01:06:54.817Z,5.75
2023-03-03T01:09:21.907Z,5.74
2023-03-03T01:11:51.514Z,5.82
2023-03-03T01:14:30.367Z,5.91
2023-03-03T01:16:57.051Z,5.91
2023-03-03T01:19:23.626Z,5.78
2023-03-03T01:21:50.226Z,5.86
2023-03-03T01:24:50.661Z,6.00
2023-03-03T01:28:00.493Z,6.08
2023-03-03T01:30:27.791Z,6.15
2023-03-03T01:32:55.024Z,6.20
2023-03-03T01:35:21.845Z,6.19
2023-03-03T01:37:48.471Z,6.18
2023-03-03T01:40:24.730Z,6.22
2023-03-03T01:45:29.750Z,6.47
2023-03-03T01:48:07.498Z,6.23
2023-03-03T01:50:50.270Z,6.30
2023-03-03T01:53:28.707Z,6.34
2023-03-03T01:55:55.352Z,6.47
2023-03-03T01:58:31.325Z,6.43
2023-03-03T02:04:22.068Z,6.43
2023-03-03T02:06:52.333Z,6.29
2023-03-03T02:09:34.921Z,6.51
2023-03-03T02:12:05.176Z,6.57
2023-03-03T02:14:31.810Z,6.62
2023-03-03T02:16:58.491Z,6.56
2023-03-03T02:22:02.352Z,6.55
2023-03-03T02:24:39.036Z,6.66
2023-03-03T02:27:05.666Z,6.76
2023-03-03T02:29:34.924Z,6.64
2023-03-03T02:32:01.728Z,6.72
2023-03-03T02:39:02.949Z,6.59
2023-03-03T02:42:06.161Z,6.84
2023-03-03T03:11:25.575Z,7.22
2023-03-03T03:13:52.818Z,7.22
2023-03-03T03:16:19.594Z,7.02
2023-03-03T03:18:46.126Z,6.93
2023-03-03T03:21:14.133Z,7.20
2023-03-03T03:23:41.011Z,7.29
2023-03-03T03:26:08.347Z,7.44
2023-03-03T03:28:38.292Z,7.47
2023-03-03T03:31:06.980Z,7.54
2023-03-03T03:33:34.033Z,7.60
2023-03-03T03:36:01.279Z,7.68
2023-03-03T03:42:27.118Z,7.65
2023-03-03T03:44:53.708Z,7.77
2023-03-03T03:47:20.322Z,7.78
2023-03-03T03:49:47.136Z,7.79
2023-03-03T03:52:13.697Z,7.73
2023-03-03T03:54:40.347Z,7.60
2023-03-03T03:57:07.086Z,7.74
2023-03-03T03:59:33.638Z,7.80
2023-03-03T04:02:00.240Z,7.77
2023-03-03T04:04:26.890Z,7.31
2023-03-03T04:06:53.441Z,7.20
2023-03-03T04:09:19.973Z,7.38
2023-03-03T04:11:52.076Z,7.65
2023-03-03T04:14:46.472Z,7.75
2023-03-03T04:17:24.463Z,7.80
2023-03-03T04:19:53.540Z,7.66
2023-03-03T04:22:20.172Z,7.70
2023-03-03T04:24:48.678Z,7.77
2023-03-03T04:27:15.599Z,7.68
2023-03-03T04:29:42.439Z,7.76
2023-03-03T04:32:21.212Z,7.88
2023-03-03T04:35:08.235Z,7.98
2023-03-03T04:37:36.532Z,7.96
2023-03-03T04:40:04.992Z,7.92
2023-03-03T04:42:55.674Z,8.01
2023-03-03T04:45:59.103Z,8.09
2023-03-03T04:48:25.762Z,7.82
2023-03-03T04:50:53.438Z,7.41
2023-03-03T04:53:20.205Z,7.48
2023-03-03T04:55:46.818Z,7.56
2023-03-03T04:58:13.468Z,7.69
2023-03-03T05:03:15.230Z,7.58
2023-03-03T05:05:42.043Z,7.75
2023-03-03T05:08:08.605Z,7.81
2023-03-03T05:10:51.905Z,7.91
2023-03-03T05:13:46.536Z,7.97
2023-03-03T05:16:29.349Z,7.99
2023-03-03T05:18:55.973Z,7.96
2023-03-03T05:21:22.575Z,7.90
2023-03-03T05:23:49.140Z,7.95
2023-03-03T05:26:15.939Z,7.91
2023-03-03T05:28:42.563Z,7.84
2023-03-03T05:31:09.226Z,7.82
2023-03-03T05:33:35.949Z,7.83
2023-03-03T05:36:02.524Z,7.92
2023-03-03T05:38:29.362Z,7.60
2023-03-03T05:40:56.208Z,7.70
2023-03-03T05:43:22.788Z,7.86
2023-03-03T05:46:35.991Z,7.86
2023-03-03T05:49:17.948Z,7.88
2023-03-03T05:52:00.365Z,7.96
2023-03-03T05:54:26.999Z,8.01
2023-03-03T05:56:53.621Z,8.05
2023-03-03T05:59:20.754Z,8.16
2023-03-03T06:01:47.418Z,8.17
2023-03-03T06:04:13.998Z,8.15
2023-03-03T06:06:40.941Z,8.22
2023-03-03T06:09:07.537Z,8.24
2023-03-03T06:11:34.179Z,8.32
2023-03-03T06:14:00.939Z,8.41
2023-03-03T06:16:27.625Z,8.43
2023-03-03T06:18:54.242Z,8.41
2023-03-03T06:21:20.834Z,8.38
2023-03-03T06:23:47.427Z,8.34
2023-03-03T06:26:14.012Z,8.16
2023-03-03T06:28:40.651Z,7.52
2023-03-03T06:31:07.229Z,7.45
2023-03-03T06:33:33.797Z,6.98
2023-03-03T06:36:00.464Z,6.84
2023-03-03T06:38:27.260Z,7.23
2023-03-03T06:40:53.864Z,7.49
2023-03-03T06:43:20.675Z,7.43
2023-03-03T06:45:47.338Z,7.75
2023-03-03T06:48:16.793Z,7.78
2023-03-03T06:50:43.326Z,7.76
2023-03-03T06:53:26.245Z,7.46
2023-03-03T06:55:52.858Z,7.99
2023-03-03T06:58:21.791Z,8.11
2023-03-03T07:01:00.015Z,7.37
2023-03-03T07:03:34.740Z,7.65
2023-03-03T07:06:04.573Z,7.94
2023-03-03T07:08:32.970Z,8.38
2023-03-03T07:11:08.452Z,8.60
2023-03-03T07:13:39.589Z,8.65
2023-03-03T07:16:12.556Z,8.65
2023-03-03T07:19:14.459Z,8.73
2023-03-03T07:21:41.620Z,8.72
2023-03-03T07:24:31.389Z,8.96
2023-03-03T07:27:27.474Z,9.09
2023-03-03T07:30:09.221Z,8.99
2023-03-03T07:32:42.182Z,9.26
2023-03-03T07:38:16.963Z,9.47
2023-03-03T07:40:51.238Z,9.48
2023-03-03T07:43:36.084Z,9.59
2023-03-03T07:46:21.800Z,9.55
2023-03-03T07:48:49.226Z,9.72
2023-03-03T07:51:59.218Z,9.91
2023-03-03T07:54:59.031Z,9.99
2023-03-03T07:57:29.822Z,10.07
2023-03-03T08:00:15.046Z,10.04
2023-03-03T08:02:47.436Z,9.98
2023-03-03T08:05:29.081Z,9.85
2023-03-03T08:08:12.091Z,10.00
2023-03-03T08:10:45.843Z,9.87
2023-03-03T08:13:18.902Z,10.19
2023-03-03T08:15:48.966Z,10.31
2023-03-03T08:18:24.280Z,10.34
2023-03-03T08:21:34.312Z,10.46
2023-03-03T08:24:25.630Z,10.64
2023-03-03T08:26:52.537Z,10.87
2023-03-03T08:29:21.420Z,10.99
2023-03-03T08:31:48.381Z,11.16
2023-03-03T08:34:14.951Z,10.76
2023-03-03T08:36:41.527Z,10.96
2023-03-03T08:39:11.235Z,11.24
2023-03-03T08:41:39.139Z,11.47
2023-03-03T08:44:05.790Z,11.85
2023-03-03T08:46:32.626Z,11.61
2023-03-03T08:48:59.232Z,11.80
2023-03-03T08:51:31.105Z,11.80
2023-03-03T08:53:59.048Z,11.75
2023-03-03T08:56:25.669Z,11.43
2023-03-03T08:59:02.252Z,11.56
2023-03-03T09:01:29.807Z,11.65
2023-03-03T09:03:56.462Z,11.59
2023-03-03T09:06:23.488Z,11.88
2023-03-03T09:08:50.503Z,11.59
2023-03-03T09:11:24.421Z,11.57
2023-03-03T09:13:53.362Z,11.81
2023-03-03T09:16:22.290Z,11.79
2023-03-03T09:18:48.988Z,11.70
2023-03-03T09:21:22.982Z,11.62
2023-03-03T09:23:54.916Z,11.53
2023-03-03T09:26:28.398Z,11.70
2023-03-03T09:29:00.629Z,11.74
2023-03-03T09:31:42.358Z,11.78
2023-03-03T09:34:42.478Z,12.22
2023-03-03T09:37:22.812Z,12.33
2023-03-03T09:39:55.176Z,12.09
2023-03-03T09:42:53.284Z,12.38
2023-03-03T09:45:33.349Z,12.55
2023-03-03T09:48:32.392Z,12.82
2023-03-03T09:51:17.859Z,12.80
2023-03-03T09:54:16.530Z,12.56
2023-03-03T09:56:50.146Z,12.64
2023-03-03T09:59:42.372Z,12.93
2023-03-03T10:02:14.719Z,12.63
2023-03-03T10:04:58.368Z,12.94
2023-03-03T10:07:53.950Z,12.75
2023-03-03T10:10:31.823Z,12.65
2023-03-03T10:13:30.743Z,12.59
2023-03-03T10:16:27.279Z,12.77
2023-03-03T10:19:17.068Z,12.85
2023-03-03T10:22:06.999Z,12.65
2023-03-03T10:24:47.488Z,12.70
2023-03-03T10:27:16.904Z,12.98
2023-03-03T10:30:07.810Z,13.10
2023-03-03T10:32:50.464Z,12.85
2023-03-03T10:36:06.986Z,12.84
2023-03-03T10:41:47.743Z,13.47
2023-03-03T10:44:33.196Z,13.56
2023-03-03T10:47:21.076Z,13.37
2023-03-03T10:51:00.078Z,14.01
2023-03-03T10:54:19.974Z,14.17
2023-03-03T10:57:08.023Z,13.39
2023-03-03T10:59:41.564Z,12.44
2023-03-03T11:02:18.380Z,13.03
2023-03-03T11:04:55.443Z,12.93
2023-03-03T11:07:45.570Z,13.10
2023-03-03T11:11:03.769Z,13.50
2023-03-03T11:13:53.249Z,13.48
2023-03-03T11:16:40.866Z,13.26
2023-03-03T11:19:25.538Z,13.69
2023-03-03T11:22:17.341Z,13.79
2023-03-03T11:25:36.627Z,13.79
2023-03-03T11:28:40.699Z,13.50
2023-03-03T11:31:16.514Z,13.50
2023-03-03T11:33:52.024Z,13.78
2023-03-03T11:36:27.538Z,14.00
2023-03-03T11:39:04.300Z,12.90
2023-03-03T11:41:42.462Z,13.09
2023-03-03T11:44:16.155Z,13.56
2023-03-03T11:46:58.282Z,13.80
2023-03-03T11:49:50.305Z,13.64
2023-03-03T11:52:55.124Z,13.69
2023-03-03T11:55:24.788Z,13.94
2023-03-03T11:58:01.048Z,13.72
2023-03-03T12:00:41.123Z,13.78
2023-03-03T12:03:29.761Z,13.94
2023-03-03T12:06:17.256Z,13.46
2023-03-03T12:09:21.090Z,13.73
2023-03-03T12:11:54.432Z,13.74
2023-03-03T12:14:29.987Z,13.59
2023-03-03T12:17:25.994Z,13.80
2023-03-03T12:20:30.203Z,14.14
2023-03-03T12:23:14.837Z,14.05
2023-03-03T12:25:49.001Z,13.94
2023-03-03T12:28:27.166Z,13.82
2023-03-03T12:31:13.507Z,14.14
2023-03-03T12:33:56.762Z,13.63
2023-03-03T12:36:25.585Z,13.14
2023-03-03T12:39:13.711Z,13.60
2023-03-03T12:41:56.049Z,13.60
2023-03-03T12:44:45.067Z,13.65
2023-03-03T12:47:36.106Z,13.44
2023-03-03T12:50:24.556Z,13.73
2023-03-03T12:53:09.931Z,14.04
2023-03-03T12:55:36.602Z,14.24
2023-03-03T12:58:25.997Z,14.37
2023-03-03T13:01:01.826Z,14.50
2023-03-03T13:03:55.876Z,14.62
2023-03-03T13:06:31.241Z,14.99
2023-03-03T13:09:21.090Z,15.11
2023-03-03T13:12:18.818Z,15.46
2023-03-03T13:14:55.731Z,15.51
2023-03-03T13:17:31.066Z,15.33
2023-03-03T13:20:01.122Z,15.35
2023-03-03T13:22:33.869Z,14.93
2023-03-03T13:25:07.711Z,15.62
2023-03-03T13:27:47.150Z,16.02
2023-03-03T13:30:19.869Z,16.10
2023-03-03T13:32:49.924Z,16.08
2023-03-03T13:35:19.552Z,16.36
2023-03-03T13:37:52.535Z,16.62
2023-03-03T13:40:25.275Z,16.75
2023-03-03T13:43:30.333Z,16.65
2023-03-03T13:46:13.729Z,16.90
2023-03-03T13:48:58.730Z,16.99
2023-03-03T13:51:46.783Z,17.07
2023-03-03T13:54:35.597Z,16.86
2023-03-03T13:57:27.827Z,17.04
2023-03-03T14:00:04.236Z,17.13
2023-03-03T14:03:09.638Z,16.57
2023-03-03T14:05:48.544Z,16.78
2023-03-03T14:08:36.887Z,16.60
2023-03-03T14:11:30.900Z,16.53
2023-03-03T14:17:02.301Z,16.06
2023-03-03T14:19:34.845Z,16.01
2023-03-03T14:22:07.090Z,16.11
2023-03-03T14:24:55.930Z,16.02
2023-03-03T14:27:28.688Z,16.21
2023-03-03T14:30:41.713Z,15.93
2023-03-03T14:33:33.621Z,15.69
2023-03-03T14:36:03.661Z,15.61
2023-03-03T14:38:32.896Z,15.33
2023-03-03T14:41:17.402Z,15.55
2023-03-03T14:43:57.780Z,15.61
2023-03-03T14:46:27.053Z,15.58
2023-03-03T14:48:56.197Z,15.73
2023-03-03T14:51:29.062Z,15.21
2023-03-03T14:53:56.650Z,15.27
2023-03-03T14:56:30.428Z,15.13
2023-03-03T14:59:30.561Z,15.19
2023-03-03T15:02:23.345Z,15.02
2023-03-03T15:04:50.028Z,15.05
2023-03-03T15:07:38.787Z,15.03
2023-03-03T15:10:07.742Z,14.46
2023-03-03T15:12:43.172Z,13.99
2023-03-03T15:15:21.839Z,14.13
2023-03-03T15:17:51.045Z,14.37
2023-03-03T15:20:41.495Z,14.36
2023-03-03T15:23:36.139Z,14.18
2023-03-03T15:26:10.613Z,13.67
2023-03-03T15:28:52.413Z,13.49
2023-03-03T15:31:30.132Z,13.77
2023-03-03T15:34:48.895Z,13.40
2023-03-03T15:37:34.469Z,13.47
2023-03-03T15:40:16.732Z,13.06
2023-03-03T15:42:58.092Z,13.06
2023-03-03T15:45:52.650Z,13.07
2023-03-03T15:48:40.618Z,13.25
2023-03-03T15:51:42.694Z,13.19
2023-03-03T15:54:36.443Z,12.72
2023-03-03T15:57:16.471Z,12.71
2023-03-03T16:00:24.978Z,12.68
2023-03-03T16:03:17.147Z,12.66
2023-03-03T16:06:06.012Z,12.77
2023-03-03T16:09:06.102Z,12.80
2023-03-03T16:11:49.398Z,12.94
2023-03-03T16:14:34.984Z,12.94
2023-03-03T16:17:25.121Z,12.89
2023-03-03T16:20:21.010Z,12.41
2023-03-03T16:22:53.901Z,12.22
2023-03-03T16:25:42.318Z,12.23
2023-03-03T16:28:16.648Z,12.18
2023-03-03T16:31:10.721Z,12.25
2023-03-03T16:34:20.601Z,12.27
2023-03-03T16:37:05.055Z,12.12
2023-03-03T16:40:11.893Z,12.05
2023-03-03T16:42:38.524Z,12.05
2023-03-03T16:45:42.420Z,11.94
2023-03-03T16:48:35.356Z,11.83
2023-03-03T16:51:31.408Z,11.64
2023-03-03T16:54:07.005Z,11.51
2023-03-03T16:57:08.490Z,11.34
2023-03-03T16:59:38.005Z,11.23
2023-03-03T17:03:13.670Z,11.07
2023-03-03T17:05:52.210Z,10.73
2023-03-03T17:08:37.247Z,10.55
2023-03-03T17:11:43.375Z,10.46
2023-03-03T17:14:42.788Z,10.34
2023-03-03T17:17:29.512Z,10.19
2023-03-03T17:20:22.172Z,10.16
2023-03-03T17:23:00.684Z,10.00
2023-03-03T17:25:45.792Z,9.92
2023-03-03T17:28:17.692Z,9.93
2023-03-03T17:31:03.189Z,9.83
2023-03-03T17:33:38.311Z,9.73
2023-03-03T17:36:19.830Z,9.71
2023-03-03T17:38:59.109Z,9.61
2023-03-03T17:42:14.965Z,9.66
2023-03-03T17:44:53.333Z,9.44
2023-03-03T17:47:43.252Z,9.47
2023-03-03T17:50:47.715Z,9.32
2023-03-03T17:53:43.929Z,9.30
2023-03-03T17:56:17.876Z,9.39
2023-03-03T17:59:22.112Z,9.28
2023-03-03T18:02:01.411Z,9.18
2023-03-03T18:04:36.743Z,9.23
2023-03-03T18:07:24.628Z,9.10
2023-03-03T18:10:15.423Z,9.03
2023-03-03T18:13:08.916Z,8.90
2023-03-03T18:15:44.277Z,8.92
2023-03-03T18:18:16.541Z,8.79
2023-03-03T18:20:55.390Z,8.57
2023-03-03T18:23:28.000Z,8.37
2023-03-03T18:25:57.294Z,8.32
2023-03-03T18:28:36.322Z,8.31
2023-03-03T18:31:04.973Z,8.22
2023-03-03T18:33:41.526Z,8.30
2023-03-03T18:36:13.810Z,8.36
2023-03-03T18:38:44.809Z,8.38
2023-03-03T18:41:18.034Z,8.49
2023-03-03T18:43:44.563Z,8.60
2023-03-03T18:46:31.368Z,8.55
2023-03-03T18:49:02.073Z,8.54
2023-03-03T18:51:34.673Z,8.54
2023-03-03T18:54:03.935Z,8.27
2023-03-03T18:57:10.302Z,8.16
2023-03-03T18:59:36.932Z,8.41
2023-03-03T19:02:12.251Z,8.11
2023-03-03T19:05:04.814Z,7.92
2023-03-03T19:07:40.547Z,7.82
2023-03-03T19:10:19.341Z,7.95
2023-03-03T19:12:57.692Z,8.07
2023-03-03T19:15:48.864Z,7.91
2023-03-03T19:18:23.715Z,7.99
2023-03-03T19:20:58.485Z,7.92
2023-03-03T19:23:31.675Z,7.73
2023-03-03T19:26:26.009Z,7.76
2023-03-03T19:29:04.967Z,8.05
2023-03-03T19:31:59.455Z,7.64
2023-03-03T19:34:41.532Z,7.82
2023-03-03T19:37:40.700Z,7.46
2023-03-03T19:40:34.258Z,7.39
2023-03-03T19:43:03.767Z,7.44
2023-03-03T19:46:03.913Z,7.06
2023-03-03T19:49:02.189Z,7.11
2023-03-03T19:52:01.764Z,7.02
2023-03-03T19:54:59.727Z,7.07
2023-03-03T19:57:43.823Z,7.15
2023-03-03T20:00:20.841Z,7.03
2023-03-03T20:03:21.410Z,7.09
2023-03-03T20:06:07.832Z,7.12
2023-03-03T20:08:39.348Z,7.23
2023-03-03T20:11:48.807Z,7.53
2023-03-03T20:14:49.107Z,7.56
2023-03-03T20:17:30.909Z,7.57
2023-03-03T20:20:43.104Z,7.64
2023-03-03T20:23:32.242Z,7.63
2023-03-03T20:26:06.890Z,7.58
2023-03-03T20:32:57.898Z,7.04
2023-03-03T20:35:42.545Z,7.07
2023-03-03T20:38:35.712Z,6.88
2023-03-03T20:41:14.183Z,7.03
2023-03-03T20:43:56.657Z,6.96
2023-03-03T20:46:53.209Z,6.80
2023-03-03T20:50:02.400Z,6.05
2023-03-03T20:52:40.199Z,6.25
2023-03-03T20:55:31.576Z,6.65
2023-03-03T20:58:39.073Z,6.45
2023-03-03T21:01:58.812Z,5.62
2023-03-03T21:04:31.825Z,5.93
2023-03-03T21:07:01.028Z,5.50
2023-03-03T21:09:39.185Z,5.36
2023-03-03T21:12:28.920Z,5.21
2023-03-03T21:15:03.527Z,5.31
2023-03-03T21:17:31.619Z,5.52
2023-03-03T21:20:34.660Z,5.55
2023-03-03T21:23:02.557Z,5.61
2023-03-03T21:25:41.511Z,5.92
2023-03-03T21:28:30.853Z,5.98
2023-03-03T21:31:03.338Z,5.81
2023-03-03T21:33:57.194Z,5.89
2023-03-03T21:36:32.631Z,6.01
2023-03-03T21:39:02.132Z,5.91
2023-03-03T21:41:57.550Z,5.85
2023-03-03T21:44:40.990Z,5.56
2023-03-03T21:47:17.363Z,5.52
2023-03-03T21:49:45.668Z,5.49
2023-03-03T21:52:14.367Z,5.60
2023-03-03T21:54:41.072Z,5.60
2023-03-03T21:57:26.168Z,5.38
2023-03-03T22:00:17.240Z,5.37
2023-03-03T22:03:02.211Z,5.32
2023-03-03T22:05:28.757Z,5.09
2023-03-03T22:07:55.374Z,5.11
2023-03-03T22:10:21.928Z,4.95
2023-03-03T22:12:48.686Z,4.93
2023-03-03T22:15:15.286Z,4.69
2023-03-03T22:17:43.137Z,4.31
2023-03-03T22:20:11.414Z,4.39
2023-03-03T22:22:38.097Z,4.22
2023-03-03T22:25:04.912Z,4.44
2023-03-03T22:27:59.529Z,3.88
2023-03-03T22:30:54.239Z,4.24
2023-03-03T22:33:30.154Z,4.13
2023-03-03T22:35:56.840Z,4.34
2023-03-03T22:38:25.110Z,4.58
2023-03-03T22:40:52.512Z,4.40
2023-03-03T22:43:19.148Z,4.73
2023-03-03T22:45:45.780Z,4.87
2023-03-03T22:48:12.847Z,4.88
2023-03-03T22:50:39.609Z,4.59
2023-03-03T22:53:09.306Z,4.19
2023-03-03T22:55:37.140Z,4.71
2023-03-03T22:58:20.517Z,4.19
2023-03-03T23:01:02.886Z,4.54
2023-03-03T23:03:29.545Z,4.61
2023-03-03T23:05:56.408Z,4.43
2023-03-03T23:08:23.021Z,4.54
2023-03-03T23:10:49.639Z,4.56
2023-03-03T23:13:16.658Z,4.57
2023-03-03T23:16:02.630Z,4.63
2023-03-03T23:18:29.673Z,4.89
2023-03-03T23:20:56.790Z,5.08
2023-03-03T23:23:23.809Z,4.87
2023-03-03T23:26:02.334Z,4.55
2023-03-03T23:28:52.811Z,4.33
2023-03-03T23:31:37.553Z,4.51
2023-03-03T23:34:04.224Z,4.50
2023-03-03T23:36:30.763Z,4.70
2023-03-03T23:38:57.306Z,4.61
2023-03-03T23:41:23.873Z,4.59
2023-03-03T23:43:50.433Z,4.78
2023-03-03T23:46:17.003Z,4.85
2023-03-03T23:48:43.546Z,4.91
2023-03-03T23:51:10.077Z,4.81
2023-03-03T23:53:36.691Z,4.75
2023-03-03T23:56:21.672Z,4.71
2023-03-03T23:59:32.762Z,4.64
